sensor_id;sensor_type;location;lat;lon;timestamp;P1;durP1;ratioP1;P2;durP2;ratioP2
10823;SDS011;39116;59.332;18.034;2023-02-15T00:00:27;11.17;;;6.13;;
10823;SDS011;39116;59.332;18.034;2023-02-15T00:02:49;13.57;;;5.63;;
10823;SDS011;39116;59.332;18.034;2023-02-15T00:05:11;6.83;;;5.00;;
10823;SDS011;39116;59.332;18.034;2023-02-15T00:07:33;9.57;;;5.67;;
10823;SDS011;39116;59.332;18.034;2023-02-15T00:09:55;11.17;;;5.23;;
10823;SDS011;39116;59.332;18.034;2023-02-15T00:12:17;11.63;;;5.40;;
10823;SDS011;39116;59.332;18.034;2023-02-15T00:14:39;8.10;;;5.30;;
10823;SDS011;39116;59.332;18.034;2023-02-15T00:17:03;9.17;;;4.63;;
10823;SDS011;39116;59.332;18.034;2023-02-15T00:19:25;8.47;;;5.70;;
10823;SDS011;39116;59.332;18.034;2023-02-15T00:21:48;8.10;;;5.40;;
10823;SDS011;39116;59.332;18.034;2023-02-15T00:24:11;8.40;;;5.60;;
10823;SDS011;39116;59.332;18.034;2023-02-15T00:26:34;9.47;;;5.13;;
10823;SDS011;39116;59.332;18.034;2023-02-15T00:28:57;6.97;;;4.50;;
10823;SDS011;39116;59.332;18.034;2023-02-15T00:31:20;7.97;;;4.73;;
10823;SDS011;39116;59.332;18.034;2023-02-15T00:33:43;8.97;;;5.13;;
10823;SDS011;39116;59.332;18.034;2023-02-15T00:36:06;10.43;;;5.00;;
10823;SDS011;39116;59.332;18.034;2023-02-15T00:38:30;13.70;;;5.93;;
10823;SDS011;39116;59.332;18.034;2023-02-15T00:40:53;10.00;;;5.27;;
10823;SDS011;39116;59.332;18.034;2023-02-15T00:43:15;8.33;;;5.30;;
10823;SDS011;39116;59.332;18.034;2023-02-15T00:45:37;9.43;;;5.30;;
10823;SDS011;39116;59.332;18.034;2023-02-15T00:47:59;10.10;;;5.23;;
10823;SDS011;39116;59.332;18.034;2023-02-15T00:50:22;9.23;;;5.13;;
10823;SDS011;39116;59.332;18.034;2023-02-15T00:52:44;10.70;;;5.57;;
10823;SDS011;39116;59.332;18.034;2023-02-15T00:55:06;9.30;;;4.90;;
10823;SDS011;39116;59.332;18.034;2023-02-15T00:57:28;9.73;;;5.13;;
10823;SDS011;39116;59.332;18.034;2023-02-15T00:59:50;10.47;;;5.00;;
10823;SDS011;39116;59.332;18.034;2023-02-15T01:02:13;9.13;;;5.23;;
10823;SDS011;39116;59.332;18.034;2023-02-15T01:04:35;9.67;;;5.10;;
10823;SDS011;39116;59.332;18.034;2023-02-15T01:06:58;10.67;;;4.90;;
10823;SDS011;39116;59.332;18.034;2023-02-15T01:09:22;8.97;;;5.00;;
10823;SDS011;39116;59.332;18.034;2023-02-15T01:11:44;7.60;;;4.50;;
10823;SDS011;39116;59.332;18.034;2023-02-15T01:14:06;9.63;;;4.93;;
10823;SDS011;39116;59.332;18.034;2023-02-15T01:16:28;8.60;;;4.87;;
10823;SDS011;39116;59.332;18.034;2023-02-15T01:18:50;10.97;;;4.83;;
10823;SDS011;39116;59.332;18.034;2023-02-15T01:21:12;6.60;;;4.27;;
10823;SDS011;39116;59.332;18.034;2023-02-15T01:23:38;7.83;;;4.90;;
10823;SDS011;39116;59.332;18.034;2023-02-15T01:26:01;9.77;;;5.03;;
10823;SDS011;39116;59.332;18.034;2023-02-15T01:28:23;8.87;;;5.20;;
10823;SDS011;39116;59.332;18.034;2023-02-15T01:30:45;7.80;;;5.37;;
10823;SDS011;39116;59.332;18.034;2023-02-15T01:33:07;8.53;;;4.53;;
10823;SDS011;39116;59.332;18.034;2023-02-15T01:35:37;9.00;;;4.87;;
10823;SDS011;39116;59.332;18.034;2023-02-15T01:37:59;11.93;;;5.50;;
10823;SDS011;39116;59.332;18.034;2023-02-15T01:40:23;12.23;;;5.37;;
10823;SDS011;39116;59.332;18.034;2023-02-15T01:42:45;7.60;;;5.10;;
10823;SDS011;39116;59.332;18.034;2023-02-15T01:45:16;7.13;;;5.00;;
10823;SDS011;39116;59.332;18.034;2023-02-15T01:47:41;9.60;;;5.00;;
10823;SDS011;39116;59.332;18.034;2023-02-15T01:50:07;6.80;;;4.73;;
10823;SDS011;39116;59.332;18.034;2023-02-15T01:52:33;7.80;;;4.80;;
10823;SDS011;39116;59.332;18.034;2023-02-15T01:54:58;11.25;;;4.95;;
10823;SDS011;39116;59.332;18.034;2023-02-15T01:57:22;8.77;;;4.90;;
10823;SDS011;39116;59.332;18.034;2023-02-15T01:59:48;9.50;;;5.40;;
10823;SDS011;39116;59.332;18.034;2023-02-15T02:02:14;9.87;;;5.07;;
10823;SDS011;39116;59.332;18.034;2023-02-15T02:04:41;8.43;;;5.63;;
10823;SDS011;39116;59.332;18.034;2023-02-15T02:07:09;9.73;;;5.80;;
10823;SDS011;39116;59.332;18.034;2023-02-15T02:09:34;9.87;;;5.03;;
10823;SDS011;39116;59.332;18.034;2023-02-15T02:11:57;9.47;;;5.17;;
10823;SDS011;39116;59.332;18.034;2023-02-15T02:14:21;11.03;;;5.23;;
10823;SDS011;39116;59.332;18.034;2023-02-15T02:16:47;8.50;;;5.17;;
10823;SDS011;39116;59.332;18.034;2023-02-15T02:19:25;7.63;;;4.97;;
10823;SDS011;39116;59.332;18.034;2023-02-15T02:22:23;7.47;;;5.07;;
10823;SDS011;39116;59.332;18.034;2023-02-15T02:25:11;8.40;;;5.40;;
10823;SDS011;39116;59.332;18.034;2023-02-15T02:27:56;10.70;;;5.50;;
10823;SDS011;39116;59.332;18.034;2023-02-15T02:30:47;12.00;;;4.97;;
10823;SDS011;39116;59.332;18.034;2023-02-15T02:33:29;9.97;;;5.50;;
10823;SDS011;39116;59.332;18.034;2023-02-15T02:36:06;8.07;;;5.57;;
10823;SDS011;39116;59.332;18.034;2023-02-15T02:38:38;12.43;;;5.93;;
10823;SDS011;39116;59.332;18.034;2023-02-15T02:41:12;12.40;;;5.57;;
10823;SDS011;39116;59.332;18.034;2023-02-15T02:43:40;8.63;;;5.27;;
10823;SDS011;39116;59.332;18.034;2023-02-15T02:46:10;10.13;;;5.70;;
10823;SDS011;39116;59.332;18.034;2023-02-15T02:48:39;9.97;;;6.27;;
10823;SDS011;39116;59.332;18.034;2023-02-15T02:51:01;8.27;;;5.37;;
10823;SDS011;39116;59.332;18.034;2023-02-15T02:53:23;8.60;;;5.60;;
10823;SDS011;39116;59.332;18.034;2023-02-15T02:55:47;10.13;;;6.37;;
10823;SDS011;39116;59.332;18.034;2023-02-15T02:58:14;7.43;;;5.57;;
10823;SDS011;39116;59.332;18.034;2023-02-15T03:00:42;12.40;;;6.20;;
10823;SDS011;39116;59.332;18.034;2023-02-15T03:03:10;8.13;;;5.50;;
10823;SDS011;39116;59.332;18.034;2023-02-15T03:05:37;10.40;;;5.73;;
10823;SDS011;39116;59.332;18.034;2023-02-15T03:08:03;10.47;;;5.90;;
10823;SDS011;39116;59.332;18.034;2023-02-15T03:10:29;12.43;;;6.17;;
10823;SDS011;39116;59.332;18.034;2023-02-15T03:12:51;8.17;;;5.73;;
10823;SDS011;39116;59.332;18.034;2023-02-15T03:15:15;13.10;;;5.87;;
10823;SDS011;39116;59.332;18.034;2023-02-15T03:17:42;12.07;;;5.90;;
10823;SDS011;39116;59.332;18.034;2023-02-15T03:20:07;16.40;;;6.97;;
10823;SDS011;39116;59.332;18.034;2023-02-15T03:22:35;11.23;;;6.07;;
10823;SDS011;39116;59.332;18.034;2023-02-15T03:25:02;8.50;;;6.20;;
10823;SDS011;39116;59.332;18.034;2023-02-15T03:27:31;9.70;;;6.10;;
10823;SDS011;39116;59.332;18.034;2023-02-15T03:29:58;13.87;;;6.13;;
10823;SDS011;39116;59.332;18.034;2023-02-15T03:32:23;9.80;;;6.13;;
10823;SDS011;39116;59.332;18.034;2023-02-15T03:34:47;9.53;;;6.20;;
10823;SDS011;39116;59.332;18.034;2023-02-15T03:37:10;10.37;;;6.90;;
10823;SDS011;39116;59.332;18.034;2023-02-15T03:39:42;10.60;;;6.67;;
10823;SDS011;39116;59.332;18.034;2023-02-15T03:42:09;10.97;;;6.67;;
10823;SDS011;39116;59.332;18.034;2023-02-15T03:44:37;13.77;;;7.20;;
10823;SDS011;39116;59.332;18.034;2023-02-15T03:47:08;8.73;;;6.67;;
10823;SDS011;39116;59.332;18.034;2023-02-15T03:49:37;13.57;;;6.93;;
10823;SDS011;39116;59.332;18.034;2023-02-15T03:52:03;12.57;;;7.30;;
10823;SDS011;39116;59.332;18.034;2023-02-15T03:54:28;13.30;;;7.30;;
10823;SDS011;39116;59.332;18.034;2023-02-15T03:57:09;14.03;;;7.67;;
10823;SDS011;39116;59.332;18.034;2023-02-15T03:59:50;13.30;;;8.50;;
10823;SDS011;39116;59.332;18.034;2023-02-15T04:02:30;11.27;;;7.37;;
10823;SDS011;39116;59.332;18.034;2023-02-15T04:04:57;15.70;;;8.57;;
10823;SDS011;39116;59.332;18.034;2023-02-15T04:07:19;11.77;;;7.77;;
10823;SDS011;39116;59.332;18.034;2023-02-15T04:09:41;11.40;;;8.07;;
10823;SDS011;39116;59.332;18.034;2023-02-15T04:12:22;15.13;;;8.57;;
10823;SDS011;39116;59.332;18.034;2023-02-15T04:14:44;13.77;;;8.77;;
10823;SDS011;39116;59.332;18.034;2023-02-15T04:17:24;15.37;;;8.63;;
10823;SDS011;39116;59.332;18.034;2023-02-15T04:19:46;14.13;;;8.80;;
10823;SDS011;39116;59.332;18.034;2023-02-15T04:22:25;14.93;;;8.93;;
10823;SDS011;39116;59.332;18.034;2023-02-15T04:25:05;14.20;;;9.43;;
10823;SDS011;39116;59.332;18.034;2023-02-15T04:27:35;14.97;;;9.20;;
10823;SDS011;39116;59.332;18.034;2023-02-15T04:29:56;14.13;;;9.13;;
10823;SDS011;39116;59.332;18.034;2023-02-15T04:32:18;16.80;;;9.80;;
10823;SDS011;39116;59.332;18.034;2023-02-15T04:34:40;12.40;;;8.33;;
10823;SDS011;39116;59.332;18.034;2023-02-15T04:37:02;15.63;;;8.80;;
10823;SDS011;39116;59.332;18.034;2023-02-15T04:39:24;15.90;;;9.30;;
10823;SDS011;39116;59.332;18.034;2023-02-15T04:41:46;16.07;;;9.83;;
10823;SDS011;39116;59.332;18.034;2023-02-15T04:44:10;15.30;;;9.03;;
10823;SDS011;39116;59.332;18.034;2023-02-15T04:46:32;16.67;;;9.50;;
10823;SDS011;39116;59.332;18.034;2023-02-15T04:48:54;15.10;;;10.07;;
10823;SDS011;39116;59.332;18.034;2023-02-15T04:51:16;15.70;;;9.50;;
10823;SDS011;39116;59.332;18.034;2023-02-15T04:53:38;17.00;;;10.07;;
10823;SDS011;39116;59.332;18.034;2023-02-15T04:56:00;15.50;;;9.87;;
10823;SDS011;39116;59.332;18.034;2023-02-15T04:58:22;15.60;;;10.10;;
10823;SDS011;39116;59.332;18.034;2023-02-15T05:00:46;14.03;;;9.27;;
10823;SDS011;39116;59.332;18.034;2023-02-15T05:03:08;16.80;;;9.50;;
10823;SDS011;39116;59.332;18.034;2023-02-15T05:05:30;17.37;;;9.53;;
10823;SDS011;39116;59.332;18.034;2023-02-15T05:07:51;16.17;;;10.10;;
10823;SDS011;39116;59.332;18.034;2023-02-15T05:10:14;15.03;;;9.40;;
10823;SDS011;39116;59.332;18.034;2023-02-15T05:12:36;15.00;;;9.52;;
10823;SDS011;39116;59.332;18.034;2023-02-15T05:14:58;17.50;;;9.63;;
10823;SDS011;39116;59.332;18.034;2023-02-15T05:17:21;15.73;;;9.83;;
10823;SDS011;39116;59.332;18.034;2023-02-15T05:19:43;16.27;;;9.95;;
10823;SDS011;39116;59.332;18.034;2023-02-15T05:22:05;14.93;;;9.87;;
10823;SDS011;39116;59.332;18.034;2023-02-15T05:24:27;15.87;;;10.13;;
10823;SDS011;39116;59.332;18.034;2023-02-15T05:27:07;16.98;;;10.70;;
10823;SDS011;39116;59.332;18.034;2023-02-15T05:29:49;13.77;;;9.23;;
10823;SDS011;39116;59.332;18.034;2023-02-15T05:32:12;18.63;;;10.73;;
10823;SDS011;39116;59.332;18.034;2023-02-15T05:34:36;18.48;;;10.00;;
10823;SDS011;39116;59.332;18.034;2023-02-15T05:36:58;18.35;;;10.38;;
10823;SDS011;39116;59.332;18.034;2023-02-15T05:39:20;17.53;;;10.30;;
10823;SDS011;39116;59.332;18.034;2023-02-15T05:41:42;15.15;;;9.35;;
10823;SDS011;39116;59.332;18.034;2023-02-15T05:44:04;20.60;;;9.98;;
10823;SDS011;39116;59.332;18.034;2023-02-15T05:46:26;15.37;;;10.00;;
10823;SDS011;39116;59.332;18.034;2023-02-15T05:48:48;19.03;;;10.90;;
10823;SDS011;39116;59.332;18.034;2023-02-15T05:51:12;15.00;;;9.88;;
10823;SDS011;39116;59.332;18.034;2023-02-15T05:53:36;16.63;;;10.83;;
10823;SDS011;39116;59.332;18.034;2023-02-15T05:55:59;16.60;;;10.33;;
10823;SDS011;39116;59.332;18.034;2023-02-15T05:58:22;16.47;;;10.10;;
10823;SDS011;39116;59.332;18.034;2023-02-15T06:00:44;17.80;;;10.33;;
10823;SDS011;39116;59.332;18.034;2023-02-15T06:03:06;16.30;;;10.53;;
10823;SDS011;39116;59.332;18.034;2023-02-15T06:05:28;17.38;;;10.75;;
10823;SDS011;39116;59.332;18.034;2023-02-15T06:07:52;16.83;;;10.10;;
10823;SDS011;39116;59.332;18.034;2023-02-15T06:10:14;18.00;;;10.80;;
10823;SDS011;39116;59.332;18.034;2023-02-15T06:12:36;16.17;;;10.63;;
10823;SDS011;39116;59.332;18.034;2023-02-15T06:14:58;18.60;;;10.63;;
10823;SDS011;39116;59.332;18.034;2023-02-15T06:17:20;16.20;;;10.80;;
10823;SDS011;39116;59.332;18.034;2023-02-15T06:19:43;16.42;;;10.45;;
10823;SDS011;39116;59.332;18.034;2023-02-15T06:22:05;19.07;;;10.90;;
10823;SDS011;39116;59.332;18.034;2023-02-15T06:24:28;15.93;;;9.43;;
10823;SDS011;39116;59.332;18.034;2023-02-15T06:26:50;19.07;;;10.90;;
10823;SDS011;39116;59.332;18.034;2023-02-15T06:29:12;17.77;;;10.40;;
10823;SDS011;39116;59.332;18.034;2023-02-15T06:31:34;17.40;;;10.20;;
10823;SDS011;39116;59.332;18.034;2023-02-15T06:33:56;20.67;;;10.70;;
10823;SDS011;39116;59.332;18.034;2023-02-15T06:36:21;15.70;;;10.43;;
10823;SDS011;39116;59.332;18.034;2023-02-15T06:38:43;16.33;;;9.82;;
10823;SDS011;39116;59.332;18.034;2023-02-15T06:41:06;17.33;;;10.23;;
10823;SDS011;39116;59.332;18.034;2023-02-15T06:43:28;17.73;;;10.63;;
10823;SDS011;39116;59.332;18.034;2023-02-15T06:45:50;16.70;;;10.27;;
10823;SDS011;39116;59.332;18.034;2023-02-15T06:48:12;16.20;;;9.73;;
10823;SDS011;39116;59.332;18.034;2023-02-15T06:50:35;19.63;;;10.17;;
10823;SDS011;39116;59.332;18.034;2023-02-15T06:52:57;15.07;;;10.67;;
10823;SDS011;39116;59.332;18.034;2023-02-15T06:55:19;17.42;;;10.02;;
10823;SDS011;39116;59.332;18.034;2023-02-15T06:57:42;14.47;;;9.77;;
10823;SDS011;39116;59.332;18.034;2023-02-15T07:00:05;16.80;;;10.05;;
10823;SDS011;39116;59.332;18.034;2023-02-15T07:02:28;17.47;;;10.37;;
10823;SDS011;39116;59.332;18.034;2023-02-15T07:04:50;15.82;;;9.90;;
10823;SDS011;39116;59.332;18.034;2023-02-15T07:07:12;20.40;;;10.17;;
10823;SDS011;39116;59.332;18.034;2023-02-15T07:09:34;13.50;;;9.73;;
10823;SDS011;39116;59.332;18.034;2023-02-15T07:11:56;14.63;;;9.30;;
10823;SDS011;39116;59.332;18.034;2023-02-15T07:14:37;16.63;;;10.13;;
10823;SDS011;39116;59.332;18.034;2023-02-15T07:17:00;16.50;;;10.23;;
10823;SDS011;39116;59.332;18.034;2023-02-15T07:19:22;15.97;;;9.63;;
10823;SDS011;39116;59.332;18.034;2023-02-15T07:21:44;16.60;;;10.03;;
10823;SDS011;39116;59.332;18.034;2023-02-15T07:24:06;14.97;;;9.23;;
10823;SDS011;39116;59.332;18.034;2023-02-15T07:26:30;14.57;;;9.50;;
10823;SDS011;39116;59.332;18.034;2023-02-15T07:28:52;14.60;;;10.03;;
10823;SDS011;39116;59.332;18.034;2023-02-15T07:31:16;14.57;;;9.17;;
10823;SDS011;39116;59.332;18.034;2023-02-15T07:33:38;16.00;;;9.47;;
10823;SDS011;39116;59.332;18.034;2023-02-15T07:36:00;14.00;;;9.03;;
10823;SDS011;39116;59.332;18.034;2023-02-15T07:38:24;14.77;;;9.43;;
10823;SDS011;39116;59.332;18.034;2023-02-15T07:40:47;14.97;;;8.93;;
10823;SDS011;39116;59.332;18.034;2023-02-15T07:43:09;16.03;;;9.10;;
10823;SDS011;39116;59.332;18.034;2023-02-15T07:45:31;14.77;;;9.27;;
10823;SDS011;39116;59.332;18.034;2023-02-15T07:47:55;14.70;;;8.63;;
10823;SDS011;39116;59.332;18.034;2023-02-15T07:50:17;14.83;;;8.70;;
10823;SDS011;39116;59.332;18.034;2023-02-15T07:52:39;13.87;;;8.80;;
10823;SDS011;39116;59.332;18.034;2023-02-15T07:55:01;12.83;;;8.73;;
10823;SDS011;39116;59.332;18.034;2023-02-15T07:57:24;13.37;;;8.03;;
10823;SDS011;39116;59.332;18.034;2023-02-15T07:59:45;13.90;;;8.90;;
10823;SDS011;39116;59.332;18.034;2023-02-15T08:02:08;13.20;;;7.97;;
10823;SDS011;39116;59.332;18.034;2023-02-15T08:04:32;11.97;;;8.40;;
10823;SDS011;39116;59.332;18.034;2023-02-15T08:06:54;16.53;;;9.10;;
10823;SDS011;39116;59.332;18.034;2023-02-15T08:09:17;11.23;;;7.77;;
10823;SDS011;39116;59.332;18.034;2023-02-15T08:11:38;11.20;;;8.17;;
10823;SDS011;39116;59.332;18.034;2023-02-15T08:14:02;14.20;;;8.07;;
10823;SDS011;39116;59.332;18.034;2023-02-15T08:16:28;12.77;;;8.30;;
10823;SDS011;39116;59.332;18.034;2023-02-15T08:18:51;11.63;;;7.53;;
10823;SDS011;39116;59.332;18.034;2023-02-15T08:21:15;13.87;;;7.90;;
10823;SDS011;39116;59.332;18.034;2023-02-15T08:23:37;13.07;;;8.20;;
10823;SDS011;39116;59.332;18.034;2023-02-15T08:25:59;11.70;;;7.57;;
10823;SDS011;39116;59.332;18.034;2023-02-15T08:28:21;14.07;;;7.20;;
10823;SDS011;39116;59.332;18.034;2023-02-15T08:30:43;14.18;;;8.07;;
10823;SDS011;39116;59.332;18.034;2023-02-15T08:33:05;15.83;;;8.27;;
10823;SDS011;39116;59.332;18.034;2023-02-15T08:35:27;12.63;;;8.40;;
10823;SDS011;39116;59.332;18.034;2023-02-15T08:37:51;12.97;;;7.73;;
10823;SDS011;39116;59.332;18.034;2023-02-15T08:40:13;11.83;;;7.77;;
10823;SDS011;39116;59.332;18.034;2023-02-15T08:42:35;12.17;;;7.30;;
10823;SDS011;39116;59.332;18.034;2023-02-15T08:44:57;10.67;;;7.37;;
10823;SDS011;39116;59.332;18.034;2023-02-15T08:47:18;12.53;;;7.73;;
10823;SDS011;39116;59.332;18.034;2023-02-15T08:49:40;13.57;;;8.40;;
10823;SDS011;39116;59.332;18.034;2023-02-15T08:52:02;12.60;;;7.70;;
10823;SDS011;39116;59.332;18.034;2023-02-15T08:54:26;15.50;;;7.67;;
10823;SDS011;39116;59.332;18.034;2023-02-15T08:56:48;12.80;;;7.97;;
10823;SDS011;39116;59.332;18.034;2023-02-15T08:59:12;12.03;;;7.80;;
10823;SDS011;39116;59.332;18.034;2023-02-15T09:01:36;12.90;;;7.50;;
10823;SDS011;39116;59.332;18.034;2023-02-15T09:03:59;10.53;;;7.20;;
10823;SDS011;39116;59.332;18.034;2023-02-15T09:06:23;10.57;;;7.10;;
10823;SDS011;39116;59.332;18.034;2023-02-15T09:08:45;11.37;;;7.27;;
10823;SDS011;39116;59.332;18.034;2023-02-15T09:11:09;12.23;;;7.63;;
10823;SDS011;39116;59.332;18.034;2023-02-15T09:13:33;11.43;;;6.67;;
10823;SDS011;39116;59.332;18.034;2023-02-15T09:15:58;12.73;;;7.60;;
10823;SDS011;39116;59.332;18.034;2023-02-15T09:18:20;12.43;;;7.40;;
10823;SDS011;39116;59.332;18.034;2023-02-15T09:20:43;13.80;;;7.87;;
10823;SDS011;39116;59.332;18.034;2023-02-15T09:23:05;12.03;;;6.43;;
10823;SDS011;39116;59.332;18.034;2023-02-15T09:25:27;12.33;;;7.30;;
10823;SDS011;39116;59.332;18.034;2023-02-15T09:27:51;11.50;;;6.47;;
10823;SDS011;39116;59.332;18.034;2023-02-15T09:30:13;10.27;;;7.35;;
10823;SDS011;39116;59.332;18.034;2023-02-15T09:32:35;13.67;;;7.23;;
10823;SDS011;39116;59.332;18.034;2023-02-15T09:34:58;11.47;;;7.00;;
10823;SDS011;39116;59.332;18.034;2023-02-15T09:37:20;11.73;;;7.55;;
10823;SDS011;39116;59.332;18.034;2023-02-15T09:39:42;12.13;;;6.43;;
10823;SDS011;39116;59.332;18.034;2023-02-15T09:42:14;10.10;;;6.43;;
10823;SDS011;39116;59.332;18.034;2023-02-15T09:45:01;12.17;;;6.93;;
10823;SDS011;39116;59.332;18.034;2023-02-15T09:47:43;8.80;;;6.43;;
10823;SDS011;39116;59.332;18.034;2023-02-15T09:50:26;12.27;;;6.70;;
10823;SDS011;39116;59.332;18.034;2023-02-15T09:53:00;11.73;;;6.53;;
10823;SDS011;39116;59.332;18.034;2023-02-15T09:55:38;10.47;;;6.43;;
10823;SDS011;39116;59.332;18.034;2023-02-15T09:58:08;9.50;;;6.37;;
10823;SDS011;39116;59.332;18.034;2023-02-15T10:00:40;9.47;;;5.77;;
10823;SDS011;39116;59.332;18.034;2023-02-15T10:03:15;9.63;;;6.00;;
10823;SDS011;39116;59.332;18.034;2023-02-15T10:05:51;9.80;;;6.50;;
10823;SDS011;39116;59.332;18.034;2023-02-15T10:11:15;11.37;;;6.33;;
10823;SDS011;39116;59.332;18.034;2023-02-15T10:14:08;11.07;;;6.67;;
10823;SDS011;39116;59.332;18.034;2023-02-15T10:16:45;10.27;;;6.33;;
10823;SDS011;39116;59.332;18.034;2023-02-15T10:19:16;10.00;;;6.37;;
10823;SDS011;39116;59.332;18.034;2023-02-15T10:21:50;11.27;;;6.30;;
10823;SDS011;39116;59.332;18.034;2023-02-15T10:24:24;11.40;;;6.93;;
10823;SDS011;39116;59.332;18.034;2023-02-15T10:27:12;9.87;;;6.97;;
10823;SDS011;39116;59.332;18.034;2023-02-15T10:29:36;9.90;;;6.70;;
10823;SDS011;39116;59.332;18.034;2023-02-15T10:32:02;11.10;;;6.23;;
10823;SDS011;39116;59.332;18.034;2023-02-15T10:34:32;10.70;;;6.23;;
10823;SDS011;39116;59.332;18.034;2023-02-15T10:37:03;10.80;;;6.70;;
10823;SDS011;39116;59.332;18.034;2023-02-15T10:39:40;13.80;;;7.03;;
10823;SDS011;39116;59.332;18.034;2023-02-15T10:42:10;10.40;;;7.30;;
10823;SDS011;39116;59.332;18.034;2023-02-15T10:44:45;12.97;;;7.30;;
10823;SDS011;39116;59.332;18.034;2023-02-15T10:47:26;12.23;;;7.07;;
10823;SDS011;39116;59.332;18.034;2023-02-15T10:50:02;11.65;;;7.57;;
10823;SDS011;39116;59.332;18.034;2023-02-15T10:52:39;13.57;;;8.00;;
10823;SDS011;39116;59.332;18.034;2023-02-15T10:55:12;17.83;;;8.05;;
10823;SDS011;39116;59.332;18.034;2023-02-15T10:57:43;13.60;;;8.15;;
10823;SDS011;39116;59.332;18.034;2023-02-15T11:00:16;13.83;;;7.97;;
10823;SDS011;39116;59.332;18.034;2023-02-15T11:02:51;15.00;;;8.85;;
10823;SDS011;39116;59.332;18.034;2023-02-15T11:05:26;14.27;;;8.53;;
10823;SDS011;39116;59.332;18.034;2023-02-15T11:07:57;13.00;;;8.20;;
10823;SDS011;39116;59.332;18.034;2023-02-15T11:10:24;14.60;;;8.67;;
10823;SDS011;39116;59.332;18.034;2023-02-15T11:12:51;12.70;;;8.03;;
10823;SDS011;39116;59.332;18.034;2023-02-15T11:15:17;13.00;;;7.63;;
10823;SDS011;39116;59.332;18.034;2023-02-15T11:17:47;13.88;;;8.60;;
10823;SDS011;39116;59.332;18.034;2023-02-15T11:20:15;14.68;;;8.32;;
10823;SDS011;39116;59.332;18.034;2023-02-15T11:22:43;15.13;;;9.05;;
10823;SDS011;39116;59.332;18.034;2023-02-15T11:25:14;15.87;;;8.70;;
10823;SDS011;39116;59.332;18.034;2023-02-15T11:27:39;14.35;;;8.02;;
10823;SDS011;39116;59.332;18.034;2023-02-15T11:30:02;14.60;;;8.38;;
10823;SDS011;39116;59.332;18.034;2023-02-15T11:32:30;16.10;;;9.03;;
10823;SDS011;39116;59.332;18.034;2023-02-15T11:34:58;15.82;;;8.63;;
10823;SDS011;39116;59.332;18.034;2023-02-15T11:37:24;16.90;;;8.93;;
10823;SDS011;39116;59.332;18.034;2023-02-15T11:39:53;15.82;;;8.93;;
10823;SDS011;39116;59.332;18.034;2023-02-15T11:42:18;15.00;;;9.10;;
10823;SDS011;39116;59.332;18.034;2023-02-15T11:44:44;16.05;;;9.30;;
10823;SDS011;39116;59.332;18.034;2023-02-15T11:47:14;15.27;;;8.50;;
10823;SDS011;39116;59.332;18.034;2023-02-15T11:49:36;13.75;;;8.32;;
10823;SDS011;39116;59.332;18.034;2023-02-15T11:52:01;13.65;;;7.93;;
10823;SDS011;39116;59.332;18.034;2023-02-15T11:54:26;15.93;;;9.60;;
10823;SDS011;39116;59.332;18.034;2023-02-15T11:56:52;15.93;;;8.33;;
10823;SDS011;39116;59.332;18.034;2023-02-15T11:59:16;15.13;;;8.20;;
10823;SDS011;39116;59.332;18.034;2023-02-15T12:01:46;15.55;;;9.07;;
10823;SDS011;39116;59.332;18.034;2023-02-15T12:04:09;14.57;;;9.07;;
10823;SDS011;39116;59.332;18.034;2023-02-15T12:06:41;17.30;;;9.10;;
10823;SDS011;39116;59.332;18.034;2023-02-15T12:09:10;16.30;;;9.07;;
10823;SDS011;39116;59.332;18.034;2023-02-15T12:11:40;14.57;;;8.53;;
10823;SDS011;39116;59.332;18.034;2023-02-15T12:14:03;15.85;;;8.77;;
10823;SDS011;39116;59.332;18.034;2023-02-15T12:16:26;17.25;;;8.20;;
10823;SDS011;39116;59.332;18.034;2023-02-15T12:18:50;18.73;;;8.52;;
10823;SDS011;39116;59.332;18.034;2023-02-15T12:21:15;12.00;;;7.78;;
10823;SDS011;39116;59.332;18.034;2023-02-15T12:23:46;16.25;;;8.60;;
10823;SDS011;39116;59.332;18.034;2023-02-15T12:26:11;16.57;;;8.67;;
10823;SDS011;39116;59.332;18.034;2023-02-15T12:28:34;14.53;;;9.07;;
10823;SDS011;39116;59.332;18.034;2023-02-15T12:30:59;15.15;;;9.07;;
10823;SDS011;39116;59.332;18.034;2023-02-15T12:33:25;14.48;;;8.60;;
10823;SDS011;39116;59.332;18.034;2023-02-15T12:35:54;14.90;;;8.38;;
10823;SDS011;39116;59.332;18.034;2023-02-15T12:38:21;14.30;;;8.68;;
10823;SDS011;39116;59.332;18.034;2023-02-15T12:40:54;15.23;;;9.00;;
10823;SDS011;39116;59.332;18.034;2023-02-15T12:43:25;17.30;;;9.70;;
10823;SDS011;39116;59.332;18.034;2023-02-15T12:45:48;17.37;;;8.97;;
10823;SDS011;39116;59.332;18.034;2023-02-15T12:48:14;15.30;;;9.52;;
10823;SDS011;39116;59.332;18.034;2023-02-15T12:50:38;16.50;;;9.60;;
10823;SDS011;39116;59.332;18.034;2023-02-15T12:53:05;19.97;;;9.17;;
10823;SDS011;39116;59.332;18.034;2023-02-15T12:55:29;19.17;;;9.13;;
10823;SDS011;39116;59.332;18.034;2023-02-15T12:58:07;17.33;;;10.17;;
10823;SDS011;39116;59.332;18.034;2023-02-15T13:00:31;17.03;;;9.70;;
10823;SDS011;39116;59.332;18.034;2023-02-15T13:02:55;15.77;;;9.43;;
10823;SDS011;39116;59.332;18.034;2023-02-15T13:05:20;17.57;;;8.77;;
10823;SDS011;39116;59.332;18.034;2023-02-15T13:07:49;18.67;;;10.40;;
10823;SDS011;39116;59.332;18.034;2023-02-15T13:12:46;17.92;;;9.77;;
10823;SDS011;39116;59.332;18.034;2023-02-15T13:15:22;18.40;;;9.77;;
10823;SDS011;39116;59.332;18.034;2023-02-15T13:17:51;17.50;;;8.83;;
10823;SDS011;39116;59.332;18.034;2023-02-15T13:22:43;18.33;;;9.93;;
10823;SDS011;39116;59.332;18.034;2023-02-15T13:25:10;14.30;;;8.85;;
10823;SDS011;39116;59.332;18.034;2023-02-15T13:27:36;16.10;;;9.40;;
10823;SDS011;39116;59.332;18.034;2023-02-15T13:30:03;15.55;;;9.00;;
10823;SDS011;39116;59.332;18.034;2023-02-15T13:32:32;15.53;;;8.93;;
10823;SDS011;39116;59.332;18.034;2023-02-15T13:34:59;18.87;;;9.33;;
10823;SDS011;39116;59.332;18.034;2023-02-15T13:37:25;16.23;;;9.33;;
10823;SDS011;39116;59.332;18.034;2023-02-15T13:40:02;15.23;;;8.97;;
10823;SDS011;39116;59.332;18.034;2023-02-15T13:42:31;21.88;;;10.55;;
10823;SDS011;39116;59.332;18.034;2023-02-15T13:45:02;19.30;;;9.97;;
10823;SDS011;39116;59.332;18.034;2023-02-15T13:47:37;16.52;;;9.55;;
10823;SDS011;39116;59.332;18.034;2023-02-15T13:50:18;17.97;;;9.60;;
10823;SDS011;39116;59.332;18.034;2023-02-15T13:52:52;17.42;;;9.15;;
10823;SDS011;39116;59.332;18.034;2023-02-15T13:55:31;14.43;;;8.50;;
10823;SDS011;39116;59.332;18.034;2023-02-15T13:58:05;14.80;;;8.97;;
10823;SDS011;39116;59.332;18.034;2023-02-15T14:00:44;18.70;;;9.63;;
10823;SDS011;39116;59.332;18.034;2023-02-15T14:03:26;18.50;;;9.03;;
10823;SDS011;39116;59.332;18.034;2023-02-15T14:06:14;19.92;;;8.77;;
10823;SDS011;39116;59.332;18.034;2023-02-15T14:08:54;15.45;;;8.85;;
10823;SDS011;39116;59.332;18.034;2023-02-15T14:11:27;16.20;;;9.47;;
10823;SDS011;39116;59.332;18.034;2023-02-15T14:13:57;17.50;;;8.93;;
10823;SDS011;39116;59.332;18.034;2023-02-15T14:16:39;18.23;;;8.80;;
10823;SDS011;39116;59.332;18.034;2023-02-15T14:19:10;17.70;;;9.03;;
10823;SDS011;39116;59.332;18.034;2023-02-15T14:21:43;17.93;;;8.70;;
10823;SDS011;39116;59.332;18.034;2023-02-15T14:24:13;15.60;;;8.20;;
10823;SDS011;39116;59.332;18.034;2023-02-15T14:26:47;16.43;;;8.73;;